KBLI/BLI METAR and TAF weather

Enter ICAO airport designator
Station Type Date Time Source
KBLI METAR 2020/12/05 04:53 UTC NOAA

KBLI 050453Z 33003KT 10SM CLR 02/01 A3033 RMK AO2 SLP280 T00170006


Station Type Date Time Source
KBLI Decoded METAR 2020/12/05 04:53 UTC NOAA

BELLINGHAM INTERNATIONAL AIRPORT, WA, United States (KBLI) 48-48N 122-32W 50M
Dec 04, 2020 - 11:53 PM EST / 2020.12.05 0453 UTC
Wind: from the NNW (330 degrees) at 3 MPH (3 KT):0
Visibility: 10 mile(s):0
Sky conditions: clear
Temperature: 35.1 F (1.7 C)
Dew Point: 33.1 F (0.6 C)
Relative Humidity: 92%
Pressure (altimeter): 30.33 in. Hg (1027 hPa)
ob: KBLI 050453Z 33003KT 10SM CLR 02/01 A3033 RMK AO2 SLP280 T00170006
cycle: 5

Station Type Date Time Source
KBLI TAF 2020/12/04 18:27 UTC NOAA

TAF KBLI 041724Z 0418/0518 03004KT P6SM SKC

Example: see airport list